Latest Weather Observations for Cooma Airport

IDN60801

Issued at 6:23 pm EST Saturday 9 May 2026 (issued every 10 minutes, with the page automatically refreshed every 10 minutes)

About weather observations | Map of weather stations | Latest weather observations for NSW | Other Formats
Station Details ID: 070217 Name: COOMA AIRPORT AWS Lat: -36.29 Lon: 148.97 Height: 930.0 m
Data from the previous 72 hours. | See also: Recent months at Cooma Airport
Date/Time
EST
Temp
°C
App
Temp
°C
Dew
Point
°C
Rel
Hum
%
Delta-T
°C
Wind Press
QNH
hPa
Press
MSL
hPa
Rain since
9am
mm
Dir  Spd
km/h
Gust
km/h
Spd
kts
Gust
kts
09/06:00pm 6.5 2.8 4.7 88 0.8 SSW 13 13 7 7 1026.2 1026.6 0.0
09/05:30pm 8.1 5.1 4.1 76 1.8 SSW 9 13 5 7 1025.7 1026.2 0.0
09/05:00pm 11.0 7.1 5.3 68 2.7 SW 15 17 8 9 1025.3 1025.7 0.0
09/04:30pm 13.4 10.0 6.0 61 3.7 SSW 13 17 7 9 1025.4 1025.8 0.0
09/04:00pm 14.1 10.3 5.7 57 4.2 SSW 15 19 8 10 1025.2 1025.6 0.0
09/03:30pm 14.9 10.9 5.1 52 4.9 SSW 15 20 8 11 1025.1 1025.5 0.0
09/03:00pm 14.7 10.3 4.7 51 4.9 SSW 17 24 9 13 1025.0 1025.4 0.0
09/02:30pm 15.0 10.4 5.5 53 4.8 SSW 19 24 10 13 1025.1 1025.5 0.0
09/02:00pm 14.7 10.8 5.2 53 4.7 SSW 15 22 8 12 1024.9 1025.3 0.0
09/01:30pm 14.0 10.9 5.4 56 4.3 SW 11 19 6 10 1025.0 1025.4 0.0
09/01:00pm 13.3 9.4 5.5 59 3.8 SSW 15 20 8 11 1025.1 1025.5 0.0
09/12:30pm 12.6 9.1 5.3 61 3.6 SSW 13 19 7 10 1025.5 1025.9 0.0
09/12:00pm 11.9 8.7 4.9 62 3.4 SW 11 19 6 10 1026.0 1026.4 0.0
09/11:30am 11.1 7.9 5.0 66 2.9 SSW 11 15 6 8 1026.2 1026.6 0.0
09/11:00am 10.3 6.6 4.5 67 2.7 SW 13 20 7 11 1026.4 1026.8 0.0
09/10:30am 9.6 5.5 4.2 69 2.5 SSW 15 20 8 11 1026.4 1026.8 0.0
09/10:13am 9.3 5.2 4.3 71 2.3 SSW 15 20 8 11 1026.4 1026.8 0.0
09/10:00am 9.3 5.2 4.5 72 2.2 SSW 15 20 8 11 1026.3 1026.7 0.0
09/09:32am 8.6 4.2 4.6 76 1.9 SW 17 26 9 14 1026.2 1026.6 0.0
09/09:30am 8.3 3.8 4.1 75 1.9 SSW 17 26 9 14 1026.2 1026.6 0.0
09/09:20am 8.2 3.7 4.4 77 1.8 SW 17 24 9 13 1026.3 1026.7 0.0
09/09:00am 7.6 3.5 4.4 80 1.5 SW 15 22 8 12 1026.2 1026.6 0.0
09/08:30am 7.0 2.5 4.1 82 1.3 SW 17 24 9 13 1025.8 1026.3 0.0
09/08:00am 6.7 1.8 4.2 84 1.1 SW 19 24 10 13 1025.6 1026.0 0.0
09/07:30am 6.4 1.3 4.2 86 1.0 SW 20 28 11 15 1025.3 1025.7 0.0
09/07:00am 6.2 1.3 4.0 86 1.0 SW 19 24 10 13 1025.1 1025.5 0.0
09/06:31am 6.1 2.3 3.9 86 1.0 WSW 13 17 7 9 1024.8 1025.1 0.0
09/06:30am 6.1 2.3 3.9 86 1.0 WSW 13 17 7 9 1024.8 1025.1 0.0
09/06:00am 6.3 2.6 4.5 88 0.8 SW 13 17 7 9 1024.2 1024.6 0.0
09/05:30am 6.3 2.6 4.5 88 0.8 SW 13 17 7 9 1023.8 1024.1 0.0
09/05:00am 6.2 3.3 4.5 89 0.8 SW 9 13 5 7 1023.6 1023.9 0.0
09/04:30am 6.2 3.6 4.4 88 0.8 WSW 7 9 4 5 1023.3 1023.7 0.0
09/04:00am 6.4 3.0 4.2 86 1.0 SW 11 13 6 7 1023.2 1023.6 0.0
09/03:30am 6.6 2.9 4.3 85 1.1 SW 13 17 7 9 1023.0 1023.4 0.0
09/03:00am 6.8 2.7 4.1 83 1.2 SW 15 20 8 11 1023.2 1023.6 0.0
09/02:30am 6.8 2.7 4.1 83 1.2 SW 15 19 8 10 1023.1 1023.5 0.0
09/02:00am 6.9 1.8 4.2 83 1.2 SW 20 24 11 13 1023.1 1023.5 0.0
09/01:30am 7.0 1.9 4.0 81 1.4 SSW 20 24 11 13 1023.0 1023.4 0.0
09/01:00am 6.7 2.1 3.7 81 1.3 SW 17 20 9 11 1023.0 1023.4 0.0
09/12:30am 7.3 1.7 3.5 77 1.7 SW 22 28 12 15 1022.8 1023.1 0.0
09/12:00am 7.6 1.7 3.8 77 1.7 SW 24 32 13 17 1022.9 1023.2 0.0
 
Date/Time
EST
Temp
°C
App
Temp
°C
Dew
Point
°C
Rel
Hum
%
Delta-T
°C
Wind Press
QNH
hPa
Press
MSL
hPa
Rain since
9am
mm
Dir  Spd
km/h
Gust
km/h
Spd
kts
Gust
kts
08/11:30pm 7.7 4.1 4.8 82 1.4 SW 13 24 7 13 1022.9 1023.2 0.0
08/11:00pm 7.7 2.7 4.5 80 1.5 SSW 20 26 11 14 1022.6 1022.9 0.0
08/10:30pm 7.9 1.4 4.8 81 1.4 SSW 28 35 15 19 1022.7 1023.0 0.0
08/10:00pm 7.7 4.2 5.3 85 1.1 SSW 13 20 7 11 1022.8 1023.1 0.0
08/09:30pm 7.6 6.4 4.6 81 1.4 CALM 0 6 0 3 1022.5 1022.8 0.0
08/09:00pm 7.6 3.9 4.7 82 1.3 SSW 13 20 7 11 1021.9 1022.2 0.0
08/08:30pm 8.4 4.0 4.6 77 1.8 SSW 17 20 9 11 1021.7 1022.0 0.0
08/08:00pm 9.1 3.0 4.7 74 2.1 SW 26 30 14 16 1021.4 1021.7 0.0
08/07:30pm 8.9 5.6 4.3 73 2.1 SW 11 15 6 8 1021.6 1021.9 0.0
08/07:00pm 9.3 4.2 4.1 70 2.4 SW 20 26 11 14 1020.8 1021.1 0.0
08/06:30pm 9.5 4.6 4.1 69 2.5 SSW 19 24 10 13 1020.7 1021.0 0.0
08/06:00pm 9.5 5.0 4.1 69 2.5 SSW 17 20 9 11 1020.0 1020.3 0.0
08/05:30pm 10.2 5.0 3.7 64 3.0 SW 20 26 11 14 1019.5 1019.8 0.0
08/05:00pm 10.7 4.7 3.5 61 3.3 SW 24 35 13 19 1018.6 1018.9 0.0
08/04:30pm 11.3 4.2 3.6 59 3.6 SSW 30 39 16 21 1018.2 1018.4 0.0
08/04:00pm 11.9 5.2 3.9 58 3.8 SW 28 35 15 19 1018.1 1018.3 0.0
08/03:30pm 11.8 5.8 3.6 57 3.8 SW 24 33 13 18 1017.8 1018.0 0.0
08/03:00pm 12.2 5.9 3.7 56 4.0 SW 26 35 14 19 1017.4 1017.7 0.0
08/02:30pm 12.2 4.7 3.2 54 4.2 SW 32 41 17 22 1016.9 1017.1 0.0
08/02:00pm 13.2 4.7 3.3 51 4.7 SW 37 52 20 28 1016.8 1017.0 0.0
08/01:30pm 13.6 5.2 3.7 51 4.7 SW 37 46 20 25 1016.9 1017.1 0.0
08/01:00pm 12.6 3.1 1.9 48 4.9 SW 41 56 22 30 1017.1 1017.3 0.0
08/12:54pm 13.2 4.5 2.1 47 5.1 SW 37 56 20 30 1016.9 1017.1 0.0
08/12:30pm 13.3 3.9 2.2 47 5.1 SW 41 56 22 30 1016.7 1016.9 0.0
08/12:00pm 12.8 2.8 2.4 49 4.8 SW 44 59 24 32 1016.5 1016.8 0.0
08/11:30am 12.3 1.0 1.3 47 4.9 SW 50 61 27 33 1016.5 1016.8 0.0
08/11:07am 12.5 1.5 0.9 45 5.2 SW 48 70 26 38 1016.5 1016.8 0.0
08/11:00am 12.9 3.3 1.3 45 5.2 SW 41 57 22 31 1016.7 1016.9 0.0
08/10:30am 12.1 0.4 1.1 47 4.9 SW 52 67 28 36 1016.0 1016.2 0.0
08/10:16am 11.9 1.3 1.0 47 4.8 SW 46 67 25 36 1015.9 1016.1 0.0
08/10:00am 11.7 0.9 2.2 52 4.3 SW 48 59 26 32 1016.1 1016.3 0.0
08/09:30am 10.9 1.1 2.2 55 3.9 SW 43 52 23 28 1016.3 1016.5 0.0
08/09:00am 10.6 2.3 1.9 55 3.9 SW 35 46 19 25 1016.5 1016.8 0.6
08/08:30am 9.5 2.5 2.1 60 3.3 WSW 28 33 15 18 1016.7 1016.9 0.6
08/08:00am 7.4 0.6 1.0 64 2.7 W 26 33 14 18 1016.1 1016.3 0.6
08/07:30am 6.9 0.9 0.8 65 2.6 W 22 30 12 16 1016.2 1016.4 0.6
08/07:00am 6.2 0.1 0.3 66 2.4 W 22 28 12 15 1015.8 1016.0 0.6
08/06:30am 5.9 0.2 0.7 69 2.2 W 20 30 11 16 1015.7 1015.9 0.6
08/06:00am 5.4 -1.1 0.4 70 2.1 W 24 32 13 17 1015.3 1015.5 0.6
08/05:30am 5.9 -0.9 0.7 69 2.2 W 26 35 14 19 1015.0 1015.2 0.6
08/05:00am 5.8 -0.6 0.8 70 2.1 W 24 33 13 18 1015.2 1015.4 0.6
08/04:30am 5.8 -1.0 0.8 70 2.1 W 26 37 14 20 1015.5 1015.6 0.6
08/04:00am 6.1 0.1 0.9 69 2.2 W 22 33 12 18 1015.3 1015.5 0.6
08/03:30am 5.5 -0.6 0.3 69 2.1 WSW 22 30 12 16 1015.6 1015.8 0.6
08/03:00am 5.9 0.2 0.3 67 2.3 W 20 28 11 15 1015.6 1015.8 0.6
08/02:30am 3.9 -0.6 -0.3 74 1.7 W 13 17 7 9 1015.8 1016.0 0.6
08/02:00am 4.8 -0.8 -0.2 70 2.0 W 19 26 10 14 1015.8 1016.0 0.6
08/01:30am 3.0 -0.5 -1.0 75 1.5 SW 7 11 4 6 1016.3 1016.5 0.6
08/01:00am 3.9 -0.3 -0.9 71 1.9 SW 11 17 6 9 1016.2 1016.4 0.6
08/12:30am 4.2 -1.5 -0.6 71 1.9 W 19 26 10 14 1016.8 1017.0 0.6
08/12:00am 3.0 -2.4 -1.5 72 1.7 W 17 20 9 11 1017.0 1017.2 0.6
 
Date/Time
EST
Temp
°C
App
Temp
°C
Dew
Point
°C
Rel
Hum
%
Delta-T
°C
Wind Press
QNH
hPa
Press
MSL
hPa
Rain since
9am
mm
Dir  Spd
km/h
Gust
km/h
Spd
kts
Gust
kts
07/11:30pm 3.0 -2.8 -1.4 73 1.7 W 19 24 10 13 1017.0 1017.2 0.6
07/11:00pm 0.6 -3.4 -2.6 79 1.2 WSW 9 13 5 7 1017.4 1017.7 0.6
07/10:30pm 2.1 -1.3 -2.4 72 1.7 WNW 6 7 3 4 1017.8 1018.0 0.6
07/10:00pm 2.3 -1.3 -1.8 74 1.5 WSW 7 13 4 7 1018.3 1018.6 0.6
07/09:30pm 3.2 -2.2 -1.3 72 1.7 SW 17 24 9 13 1018.2 1018.4 0.6
07/09:00pm 3.5 -3.3 -2.2 66 2.1 SW 24 30 13 16 1017.9 1018.1 0.6
07/08:30pm 3.6 -2.4 -1.7 68 2.0 SW 20 24 11 13 1017.9 1018.1 0.6
07/08:00pm 3.6 -3.2 -2.1 66 2.2 SW 24 37 13 20 1017.8 1018.0 0.6
07/07:30pm 3.5 -3.7 -2.2 66 2.1 SW 26 33 14 18 1017.6 1017.9 0.6
07/07:00pm 3.8 -4.2 -2.4 64 2.3 SW 30 43 16 23 1017.5 1017.8 0.6
07/06:30pm 3.4 -3.5 -2.7 64 2.3 SW 24 30 13 16 1017.6 1017.9 0.6
07/06:00pm 3.4 -5.7 -3.4 61 2.5 SW 35 48 19 26 1017.3 1017.5 0.6
07/05:50pm 3.6 -5.0 -3.9 58 2.7 SW 32 50 17 27 1017.2 1017.4 0.6
07/05:30pm 3.1 -4.2 -3.2 63 2.3 SW 26 32 14 17 1017.0 1017.2 0.6
07/05:00pm 4.1 -5.4 -3.9 56 2.9 SW 37 50 20 27 1016.5 1016.8 0.6
07/04:30pm 4.1 -4.6 -3.4 58 2.8 SW 33 43 18 23 1016.3 1016.5 0.6
07/04:00pm 4.2 -6.7 -4.5 53 3.1 SW 44 57 24 31 1015.9 1016.1 0.6
07/03:30pm 4.9 -5.8 -4.6 50 3.4 SW 43 56 23 30 1015.3 1015.5 0.6
07/03:00pm 6.2 -5.8 -4.3 47 3.9 SW 50 65 27 35 1014.8 1015.0 0.6
07/02:37pm 6.4 -5.2 -3.8 48 3.8 SW 48 67 26 36 1014.7 1014.9 0.6
07/02:30pm 6.6 -4.5 -3.1 50 3.7 SW 46 61 25 33 1014.8 1015.0 0.6
07/02:03pm 7.2 -3.3 -2.5 50 3.8 SW 43 70 23 38 1014.7 1014.9 0.6
07/02:00pm 7.1 -2.2 -1.8 53 3.5 SW 37 52 20 28 1014.8 1015.0 0.6
07/01:30pm 5.0 -3.2 -0.8 66 2.3 SSW 32 41 17 22 1014.8 1015.0 0.6
07/01:12pm 5.2 -3.5 -0.2 68 2.2 SW 35 43 19 23 1014.8 1015.0 0.6
07/01:00pm 4.5 -3.6 3.0 90 0.7 SW 35 52 19 28 1015.0 1015.2 0.6
07/12:52pm 2.5 -7.0 -1.1 77 1.4 SSW 39 52 21 28 1014.9 1015.1 0.4
07/12:30pm 5.5 -3.7 -1.6 60 2.8 SW 37 48 20 26 1014.7 1014.9 0.0
07/12:00pm 5.0 -3.4 -1.4 63 2.5 SSW 33 46 18 25 1014.8 1015.0 0.0
07/11:30am 5.4 -4.5 -1.1 63 2.6 SW 41 56 22 30 1014.8 1015.0 0.0
07/11:00am 5.1 -4.5 -1.6 62 2.6 SW 39 52 21 28 1014.5 1014.6 0.0
07/10:30am 5.1 -4.8 -1.1 64 2.4 SW 41 57 22 31 1014.1 1014.3 0.0
07/10:24am 4.9 -4.6 -1.1 65 2.4 SW 39 57 21 31 1014.1 1014.3 0.0
07/10:00am 4.4 -3.6 0.6 76 1.6 SW 32 43 17 23 1014.2 1014.4 0.0
07/09:30am 2.8 -2.8 1.5 91 0.5 WSW 20 28 11 15 1014.1 1014.3 0.0
07/09:00am 1.1 -4.0 1.0 99 0.0 WSW 17 24 9 13 1014.2 1014.4 1.4
07/08:50am 1.0 -4.1 0.9 99 0.0 WSW 17 22 9 12 1014.5 1014.6 1.4
07/08:44am 1.4 -3.6 1.3 99 0.0 WSW 17 22 9 12 1014.5 1014.6 1.4
07/08:41am 0.8 -4.3 0.7 99 0.0 WSW 17 22 9 12 1014.5 1014.6 1.4
07/08:35am 0.6 -4.5 0.5 99 0.0 WSW 17 20 9 11 1014.6 1014.7 1.0
07/08:30am 0.3 -4.9 0.2 99 0.0 WSW 17 20 9 11 1014.5 1014.6 0.6
07/08:00am 0.3 -4.5 0.2 99 0.0 SW 15 20 8 11 1014.4 1014.5 0.4
07/07:59am 0.4 -4.8 0.3 99 0.0 SW 17 20 9 11 1014.4 1014.5 0.4
07/07:45am 0.5 -5.2 0.4 99 0.0 SSW 20 28 11 15 1014.1 1014.3 0.4
07/07:30am 0.3 -5.3 0.2 99 0.0 SSW 19 24 10 13 1013.8 1014.0 0.4
07/07:16am 0.1 -4.7 0.0 99 0.0 SSW 15 19 8 10 1013.7 1013.9 0.2
07/07:00am 0.0 -4.8 -0.1 99 0.0 S 15 20 8 11 1013.5 1013.6 0.2
07/06:46am 0.2 -5.0 0.1 99 0.0 S 17 22 9 12 1013.4 1013.5 0.2
07/06:38am 0.2 -5.4 0.1 99 0.0 SSW 19 24 10 13 1013.3 1013.4 0.2
07/06:32am 0.3 -5.8 0.2 99 0.0 SSW 22 28 12 15 1013.3 1013.4 0.2
07/06:30am 0.3 -5.8 0.2 99 0.0 S 22 32 12 17 1013.3 1013.4 0.2
07/06:29am 0.4 -6.1 0.3 99 0.0 S 24 32 13 17 1013.2 1013.3 0.2
07/06:00am 0.6 -7.6 0.5 99 0.0 S 33 44 18 24 1012.4 1012.5 0.2
07/05:37am 2.9 -5.9 1.1 88 0.7 SW 37 65 20 35 1011.5 1011.6 0.0
07/05:33am 4.7 -2.4 1.6 80 1.3 W 28 65 15 35 1010.6 1010.7 0.0
07/05:32am 6.1 -0.1 2.0 75 1.8 WNW 24 57 13 31 1010.7 1010.8 0.0
07/05:30am 7.9 2.5 2.6 69 2.4 WNW 20 30 11 16 1010.6 1010.7 0.0
07/05:00am 7.3 3.1 1.8 68 2.4 WNW 13 20 7 11 1010.5 1010.6 0.0
07/04:30am 7.6 2.1 2.1 68 2.4 WNW 20 30 11 16 1010.6 1010.7 0.0
07/04:00am 6.3 3.2 3.8 84 1.1 N 9 13 5 7 1011.2 1011.3 0.0
07/03:30am 5.9 2.0 3.4 84 1.1 N 13 17 7 9 1011.5 1011.6 0.0
07/03:00am 6.8 2.8 3.1 77 1.6 N 13 19 7 10 1012.1 1012.2 0.0
07/02:30am 7.4 3.4 3.1 74 1.9 NNW 13 17 7 9 1012.6 1012.7 0.0
07/02:00am 7.0 3.8 2.9 75 1.8 N 9 15 5 8 1012.9 1013.1 0.0
07/01:30am 6.8 2.3 2.3 73 2.0 NW 15 22 8 12 1013.6 1013.7 0.0
07/01:00am 6.8 1.9 1.9 71 2.1 NW 17 28 9 15 1013.9 1014.1 0.0
07/12:30am 6.8 1.9 1.7 70 2.2 WNW 17 33 9 18 1014.4 1014.5 0.0
07/12:00am 5.7 1.8 1.2 73 1.9 SSE 11 19 6 10 1014.4 1014.5 0.0
 
Date/Time
EST
Temp
°C
App
Temp
°C
Dew
Point
°C
Rel
Hum
%
Delta-T
°C
Wind Press
QNH
hPa
Press
MSL
hPa
Rain since
9am
mm
Dir  Spd
km/h
Gust
km/h
Spd
kts
Gust
kts
06/11:30pm 6.2 2.7 1.3 71 2.1 WNW 9 13 5 7 1015.0 1015.2 0.0
06/11:00pm 6.6 0.6 1.3 69 2.3 WNW 22 32 12 17 1015.3 1015.5 0.0
06/10:30pm 6.9 1.9 1.4 68 2.4 NW 17 24 9 13 1015.3 1015.5 0.0
06/10:00pm 7.2 1.6 1.3 66 2.5 WNW 20 30 11 16 1015.9 1016.1 0.0
06/09:30pm 6.0 2.5 1.0 70 2.1 SE 9 15 5 8 1016.0 1016.2 0.0
06/09:00pm 6.9 3.5 1.8 70 2.2 NW 9 19 5 10 1016.2 1016.4 0.0
06/08:30pm 7.3 3.5 2.0 69 2.3 WNW 11 15 6 8 1016.4 1016.7 0.0
06/08:00pm 7.5 3.0 2.2 69 2.3 WNW 15 22 8 12 1016.2 1016.4 0.0
06/07:30pm 8.3 4.6 2.1 65 2.7 WNW 11 19 6 10 1016.3 1016.5 0.0
06/07:00pm 8.5 4.4 2.3 65 2.7 WNW 13 19 7 10 1016.5 1016.8 0.0
06/06:30pm 9.7 3.7 3.2 64 3.0 NW 24 33 13 18 1016.3 1016.5 0.0

Other formats

Comma delimited format used in spreadsheet applications
http://www.bom.gov.au/fwo/IDN60801/IDN60801.94921.axf

JavaScript Object Notation format (JSON) in row-major order
http://www.bom.gov.au/fwo/IDN60801/IDN60801.94921.json

Data quality

Most of these data are generated automatically and are frequently updated. Quality checks on data are not normally performed. It is possible for incorrect values to appear. Refer to information at About Latest Weather Observations and please check the disclaimer before using these data.